Time;durP1;ratioP1;P1;durP2;ratioP2;P2;SDS_P1;SDS_P2;PMS_P1;PMS_P2;Temp;Humidity;BMP_temperature;BMP_pressure;BME280_temperature;BME280_humidity;BME280_pressure;Samples;Min_cycle;Max_cycle;Signal;HPM_P1;HPM_P2
2022/10/21 00:02:20;;;;;;;4.43;3.95;;;;;;;;;;4955941;28;20031;-83
2022/10/21 00:04:45;;;;;;;6.72;4.15;;;;;;;;;;4970617;28;20118;-83
2022/10/21 00:07:11;;;;;;;7.28;4.50;;;;;;;;;;4970424;28;20163;-83
2022/10/21 00:09:36;;;;;;;5.53;3.88;;;;;;;;;;4954494;28;20039;-83
2022/10/21 00:12:02;;;;;;;5.05;4.00;;;;;;;;;;4955772;28;20497;-83
2022/10/21 00:14:27;;;;;;;7.15;4.25;;;;;;;;;;4955874;28;20087;-83
2022/10/21 00:16:53;;;;;;;7.10;4.85;;;;;;;;;;4954139;28;20086;-83
2022/10/21 00:19:18;;;;;;;8.60;4.78;;;;;;;;;;4954053;28;20032;-83
2022/10/21 00:21:43;;;;;;;5.90;3.97;;;;;;;;;;4954036;28;20320;-84
2022/10/21 00:24:09;;;;;;;6.13;4.20;;;;;;;;;;4954038;29;20399;-83
2022/10/21 00:26:34;;;;;;;5.47;3.95;;;;;;;;;;4955554;28;20107;-83
2022/10/21 00:28:59;;;;;;;8.68;4.38;;;;;;;;;;4953876;29;20102;-84
2022/10/21 00:31:25;;;;;;;4.20;3.80;;;;;;;;;;4953842;29;20050;-84
2022/10/21 00:33:51;;;;;;;6.32;4.38;;;;;;;;;;4969968;28;20363;-84
2022/10/21 00:36:16;;;;;;;7.28;4.55;;;;;;;;;;4955333;28;20121;-84
2022/10/21 00:38:43;;;;;;;4.95;3.90;;;;;;;;;;4955228;28;20039;-84
2022/10/21 00:41:09;;;;;;;7.53;3.85;;;;;;;;;;4937798;28;20031;-83
2022/10/21 00:43:53;;;;;;;5.53;3.90;;;;;;;;;;4954868;28;20032;-83
2022/10/21 00:46:48;;;;;;;5.95;4.20;;;;;;;;;;4955127;28;20463;-83
2022/10/21 00:49:18;;;;;;;6.75;4.00;;;;;;;;;;4956434;28;20147;-83
2022/10/21 00:51:47;;;;;;;5.10;3.78;;;;;;;;;;4955107;28;20478;-83
2022/10/21 00:54:13;;;;;;;5.25;3.90;;;;;;;;;;4955106;28;20031;-83
2022/10/21 00:56:40;;;;;;;7.95;4.40;;;;;;;;;;4969888;28;20047;-83
2022/10/21 00:59:06;;;;;;;7.78;4.13;;;;;;;;;;4969641;28;20027;-83
2022/10/21 01:01:32;;;;;;;5.20;3.92;;;;;;;;;;4969652;28;20086;-83
2022/10/21 01:03:57;;;;;;;6.90;4.00;;;;;;;;;;4955020;28;20031;-83
2022/10/21 01:06:24;;;;;;;5.50;4.13;;;;;;;;;;4954877;28;20047;-83
2022/10/21 01:08:50;;;;;;;11.02;3.92;;;;;;;;;;4954684;28;20047;-83
2022/10/21 01:11:17;;;;;;;5.78;3.75;;;;;;;;;;4954395;28;20438;-83
2022/10/21 01:13:57;;;;;;;6.95;4.30;;;;;;;;;;4953149;29;20446;-83
2022/10/21 01:16:37;;;;;;;5.00;4.10;;;;;;;;;;4954865;28;20046;-84
2022/10/21 01:19:12;;;;;;;6.63;3.80;;;;;;;;;;4953234;28;20092;-84
2022/10/21 01:21:43;;;;;;;4.50;3.75;;;;;;;;;;4969376;28;20027;-84
2022/10/21 01:24:47;;;;;;;8.15;4.45;;;;;;;;;;4969453;28;20050;-84
2022/10/21 01:27:17;;;;;;;8.57;4.40;;;;;;;;;;4969458;28;20034;-84
2022/10/21 01:30:06;;;;;;;6.03;3.83;;;;;;;;;;4969259;28;20391;-84
2022/10/21 01:32:51;;;;;;;6.82;4.15;;;;;;;;;;4969194;28;20027;-83
2022/10/21 01:35:25;;;;;;;5.35;3.90;;;;;;;;;;4969209;28;20112;-83
2022/10/21 01:38:08;;;;;;;4.78;3.65;;;;;;;;;;4953405;28;20062;-83
2022/10/21 01:40:56;;;;;;;5.18;3.92;;;;;;;;;;4954240;28;20106;-84
2022/10/21 01:43:29;;;;;;;6.88;4.38;;;;;;;;;;4969064;28;20122;-84
2022/10/21 01:46:05;;;;;;;6.30;4.03;;;;;;;;;;4969129;28;20027;-83
2022/10/21 01:48:34;;;;;;;5.47;4.18;;;;;;;;;;4952910;29;20069;-84
2022/10/21 01:51:02;;;;;;;7.43;4.10;;;;;;;;;;4952785;29;20126;-84
2022/10/21 01:53:37;;;;;;;6.57;4.10;;;;;;;;;;4968998;28;20046;-84
2022/10/21 01:56:03;;;;;;;5.25;3.63;;;;;;;;;;4969019;28;20030;-84
2022/10/21 01:58:32;;;;;;;9.40;3.38;;;;;;;;;;4967862;28;20047;-84
2022/10/21 02:01:00;;;;;;;6.40;3.80;;;;;;;;;;4953444;28;20038;-84
2022/10/21 02:03:31;;;;;;;6.90;4.10;;;;;;;;;;4952217;29;20034;-84
2022/10/21 02:05:57;;;;;;;5.63;4.05;;;;;;;;;;4951802;29;20028;-83
2022/10/21 02:08:23;;;;;;;7.78;4.25;;;;;;;;;;4968141;28;20037;-83
2022/10/21 02:10:51;;;;;;;6.15;4.10;;;;;;;;;;4953289;28;20050;-83
2022/10/21 02:13:22;;;;;;;6.10;4.20;;;;;;;;;;4968348;28;20027;-84
2022/10/21 02:15:48;;;;;;;8.65;4.13;;;;;;;;;;4968050;28;20027;-83
2022/10/21 02:18:22;;;;;;;7.97;4.25;;;;;;;;;;4967849;28;20482;-84
2022/10/21 02:20:52;;;;;;;5.20;3.88;;;;;;;;;;4953060;28;20027;-83
2022/10/21 02:23:20;;;;;;;4.32;3.70;;;;;;;;;;4953029;28;20027;-84
2022/10/21 02:25:47;;;;;;;6.10;4.00;;;;;;;;;;4971004;28;20039;-84
2022/10/21 02:28:12;;;;;;;4.82;4.10;;;;;;;;;;4956119;28;20483;-84
2022/10/21 02:30:46;;;;;;;5.75;4.22;;;;;;;;;;4970958;28;20114;-84
2022/10/21 02:33:18;;;;;;;5.72;4.40;;;;;;;;;;4970901;28;20474;-84
2022/10/21 02:36:21;;;;;;;4.90;4.18;;;;;;;;;;4970898;28;20085;-84
2022/10/21 02:38:52;;;;;;;6.25;3.78;;;;;;;;;;4964249;28;20058;-84
2022/10/21 02:41:21;;;;;;;6.15;4.18;;;;;;;;;;4954786;29;20146;-84
2022/10/21 02:43:53;;;;;;;5.05;3.80;;;;;;;;;;4970823;28;20390;-83
2022/10/21 02:46:19;;;;;;;6.55;4.57;;;;;;;;;;4970884;28;20077;-83
2022/10/21 02:48:46;;;;;;;5.68;4.50;;;;;;;;;;4955834;28;20492;-84
2022/10/21 02:51:11;;;;;;;5.82;4.32;;;;;;;;;;4971009;28;20027;-83
2022/10/21 02:53:37;;;;;;;5.53;4.28;;;;;;;;;;4970971;28;20031;-83
2022/10/21 02:56:03;;;;;;;6.38;4.53;;;;;;;;;;4955690;28;20142;-83
2022/10/21 02:58:29;;;;;;;5.78;4.20;;;;;;;;;;4946757;28;285436;-84
2022/10/21 03:00:54;;;;;;;6.78;4.45;;;;;;;;;;4955475;28;20039;-84
2022/10/21 03:03:20;;;;;;;8.20;4.90;;;;;;;;;;4971821;28;20035;-84
2022/10/21 03:05:45;;;;;;;7.75;4.65;;;;;;;;;;4971664;28;20039;-83
2022/10/21 03:08:11;;;;;;;7.40;4.57;;;;;;;;;;4956768;28;20042;-84
2022/10/21 03:10:36;;;;;;;6.10;4.57;;;;;;;;;;4955476;28;20062;-84
2022/10/21 03:13:02;;;;;;;9.55;4.38;;;;;;;;;;4956904;28;20027;-84
2022/10/21 03:15:27;;;;;;;4.82;3.95;;;;;;;;;;4971568;28;20102;-84
2022/10/21 03:17:53;;;;;;;4.93;4.13;;;;;;;;;;4955121;28;20405;-84
2022/10/21 03:20:18;;;;;;;6.32;4.72;;;;;;;;;;4956775;28;20507;-84
2022/10/21 03:22:44;;;;;;;6.53;4.05;;;;;;;;;;4956848;28;20394;-84
2022/10/21 03:25:10;;;;;;;6.75;4.53;;;;;;;;;;4956364;28;20046;-85
2022/10/21 03:27:35;;;;;;;7.82;4.28;;;;;;;;;;4971520;28;20043;-84
2022/10/21 03:30:02;;;;;;;8.13;4.43;;;;;;;;;;4971397;28;20037;-84
2022/10/21 03:32:27;;;;;;;5.07;4.43;;;;;;;;;;4970953;28;20101;-84
2022/10/21 03:34:53;;;;;;;5.15;3.90;;;;;;;;;;4954153;28;20126;-85
2022/10/21 03:37:18;;;;;;;8.75;4.30;;;;;;;;;;4956166;28;20064;-84
2022/10/21 03:39:44;;;;;;;7.32;4.57;;;;;;;;;;4971163;28;20038;-84
2022/10/21 03:42:09;;;;;;;5.43;4.20;;;;;;;;;;4955709;28;20501;-84
2022/10/21 03:44:34;;;;;;;5.80;3.95;;;;;;;;;;4955997;28;20039;-84
2022/10/21 03:47:00;;;;;;;7.32;4.35;;;;;;;;;;4956545;28;20034;-83
2022/10/21 03:49:25;;;;;;;6.90;4.45;;;;;;;;;;4956011;28;20545;-84
2022/10/21 03:51:50;;;;;;;5.60;4.63;;;;;;;;;;4970874;28;20501;-84
2022/10/21 03:54:16;;;;;;;7.00;4.15;;;;;;;;;;4970824;28;20118;-84
2022/10/21 03:56:42;;;;;;;6.07;4.45;;;;;;;;;;4956074;28;20050;-84
2022/10/21 03:59:07;;;;;;;6.70;4.00;;;;;;;;;;4970737;28;20122;-85
2022/10/21 04:01:32;;;;;;;9.00;5.10;;;;;;;;;;4956075;28;20027;-85
2022/10/21 04:03:58;;;;;;;5.32;4.20;;;;;;;;;;4955763;28;20070;-85
2022/10/21 04:06:23;;;;;;;7.43;4.72;;;;;;;;;;4955764;28;20039;-84
2022/10/21 04:08:48;;;;;;;7.63;4.50;;;;;;;;;;4955994;28;20031;-83
2022/10/21 04:11:14;;;;;;;6.00;4.63;;;;;;;;;;4970575;28;20027;-84
2022/10/21 04:13:39;;;;;;;5.78;4.70;;;;;;;;;;4971135;28;20055;-84
2022/10/21 04:16:06;;;;;;;6.28;4.82;;;;;;;;;;4954409;29;20122;-84
2022/10/21 04:18:32;;;;;;;13.48;5.47;;;;;;;;;;4970487;28;20054;-84
2022/10/21 04:20:57;;;;;;;9.13;4.82;;;;;;;;;;4954159;28;20035;-84
2022/10/21 04:23:23;;;;;;;10.93;5.15;;;;;;;;;;4955513;28;20117;-84
2022/10/21 04:25:48;;;;;;;11.73;5.10;;;;;;;;;;4955590;28;20027;-83
2022/10/21 04:28:13;;;;;;;9.48;4.78;;;;;;;;;;4955521;28;20114;-83
2022/10/21 04:30:39;;;;;;;12.75;4.65;;;;;;;;;;4955385;28;20035;-81
2022/10/21 04:33:04;;;;;;;7.22;4.40;;;;;;;;;;4954739;29;20031;-82
2022/10/21 04:35:30;;;;;;;9.15;4.72;;;;;;;;;;4956115;28;20090;-82
2022/10/21 04:37:55;;;;;;;14.48;5.63;;;;;;;;;;4970756;28;20031;-83
2022/10/21 04:40:21;;;;;;;10.70;4.85;;;;;;;;;;4956455;28;20090;-82
2022/10/21 04:42:47;;;;;;;13.35;5.40;;;;;;;;;;4970637;28;20063;-82
2022/10/21 04:45:13;;;;;;;7.53;4.65;;;;;;;;;;4955827;28;20030;-84
2022/10/21 04:47:38;;;;;;;5.60;4.53;;;;;;;;;;4954469;28;20464;-84
2022/10/21 04:50:04;;;;;;;10.57;4.70;;;;;;;;;;4956010;28;20082;-83
2022/10/21 04:52:29;;;;;;;10.75;4.65;;;;;;;;;;4957365;28;20049;-83
2022/10/21 04:54:55;;;;;;;10.27;4.47;;;;;;;;;;4973888;28;20047;-83
2022/10/21 04:57:20;;;;;;;8.80;4.63;;;;;;;;;;4958398;28;20055;-84
2022/10/21 04:59:45;;;;;;;8.48;4.38;;;;;;;;;;4975048;28;20027;-84
2022/10/21 05:02:10;;;;;;;6.53;4.38;;;;;;;;;;4959969;28;20506;-84
2022/10/21 05:04:36;;;;;;;7.72;4.60;;;;;;;;;;4974896;28;20054;-84
2022/10/21 05:07:01;;;;;;;17.02;4.45;;;;;;;;;;4974050;28;20034;-84
2022/10/21 05:09:27;;;;;;;9.20;4.25;;;;;;;;;;4973706;28;20034;-83
2022/10/21 05:11:52;;;;;;;7.50;3.85;;;;;;;;;;4974576;28;20376;-84
2022/10/21 05:14:17;;;;;;;8.15;4.22;;;;;;;;;;4959766;28;20031;-84
2022/10/21 05:16:43;;;;;;;6.82;4.20;;;;;;;;;;4959237;28;20062;-83
2022/10/21 05:19:09;;;;;;;5.60;4.13;;;;;;;;;;4959584;28;20031;-83
2022/10/21 05:21:34;;;;;;;8.65;4.53;;;;;;;;;;4974601;28;20383;-83
2022/10/21 05:24:00;;;;;;;9.55;4.80;;;;;;;;;;4958445;29;20027;-83
2022/10/21 05:26:27;;;;;;;7.15;4.47;;;;;;;;;;4959974;28;20035;-83
2022/10/21 05:28:53;;;;;;;10.38;4.80;;;;;;;;;;4974625;28;20082;-83
2022/10/21 05:31:18;;;;;;;5.60;4.45;;;;;;;;;;4974897;28;20032;-83
2022/10/21 05:33:43;;;;;;;8.55;4.30;;;;;;;;;;4976937;28;20036;-83
2022/10/21 05:36:09;;;;;;;7.20;4.13;;;;;;;;;;4960650;28;20037;-83
2022/10/21 05:38:34;;;;;;;8.70;4.68;;;;;;;;;;4974591;28;20027;-83
2022/10/21 05:41:00;;;;;;;6.80;4.55;;;;;;;;;;4958897;28;20088;-83
2022/10/21 05:43:26;;;;;;;5.82;4.28;;;;;;;;;;4957690;28;20056;-86
2022/10/21 05:45:52;;;;;;;13.30;3.88;;;;;;;;;;4972634;28;20082;-83
2022/10/21 05:48:18;;;;;;;9.65;4.45;;;;;;;;;;4974073;28;20027;-83
2022/10/21 05:50:44;;;;;;;5.75;4.38;;;;;;;;;;4972804;28;20027;-84
2022/10/21 05:53:10;;;;;;;7.05;4.00;;;;;;;;;;4972410;28;20066;-82
2022/10/21 05:55:36;;;;;;;8.77;4.30;;;;;;;;;;4973112;28;20078;-83
2022/10/21 05:58:01;;;;;;;7.55;3.90;;;;;;;;;;4958714;28;20062;-83
2022/10/21 06:00:26;;;;;;;8.63;4.82;;;;;;;;;;4961796;28;20479;-83
2022/10/21 06:02:52;;;;;;;8.63;4.50;;;;;;;;;;4961417;28;20038;-83
2022/10/21 06:05:18;;;;;;;10.63;4.63;;;;;;;;;;4960911;28;20063;-83
2022/10/21 06:07:43;;;;;;;6.28;4.82;;;;;;;;;;4961497;28;20031;-83
2022/10/21 06:10:10;;;;;;;7.30;4.70;;;;;;;;;;4960071;28;20134;-83
2022/10/21 06:12:36;;;;;;;6.07;4.05;;;;;;;;;;4961032;28;20027;-83
2022/10/21 06:15:01;;;;;;;6.18;4.85;;;;;;;;;;4975377;28;20372;-83
2022/10/21 06:17:27;;;;;;;11.68;5.10;;;;;;;;;;4961032;28;20477;-84
2022/10/21 06:19:52;;;;;;;8.13;4.90;;;;;;;;;;4959352;29;20024;-84
2022/10/21 06:22:17;;;;;;;6.45;4.40;;;;;;;;;;4975066;28;20042;-83
2022/10/21 06:24:43;;;;;;;8.63;4.22;;;;;;;;;;4960251;28;20122;-84
2022/10/21 06:27:08;;;;;;;9.40;4.35;;;;;;;;;;4958677;28;20163;-84
2022/10/21 06:29:33;;;;;;;10.73;5.20;;;;;;;;;;4973151;28;20106;-85
2022/10/21 06:31:59;;;;;;;8.98;4.88;;;;;;;;;;4958153;28;20397;-84
2022/10/21 06:34:24;;;;;;;5.43;4.35;;;;;;;;;;4958339;28;20110;-84
2022/10/21 06:36:50;;;;;;;6.38;4.53;;;;;;;;;;4973268;28;20035;-84
2022/10/21 06:39:15;;;;;;;6.47;4.18;;;;;;;;;;4956623;28;20650;-84
2022/10/21 06:41:40;;;;;;;11.52;4.55;;;;;;;;;;4958227;28;20027;-84
2022/10/21 06:44:06;;;;;;;5.13;4.00;;;;;;;;;;4957869;28;20029;-83
2022/10/21 06:46:31;;;;;;;7.75;4.57;;;;;;;;;;4956559;29;20035;-84
2022/10/21 06:48:56;;;;;;;6.22;4.57;;;;;;;;;;4972723;28;20033;-83
2022/10/21 06:51:23;;;;;;;7.85;3.97;;;;;;;;;;4956557;29;20086;-83
2022/10/21 06:53:57;;;;;;;8.10;4.70;;;;;;;;;;4972909;28;20035;-83
2022/10/21 06:56:23;;;;;;;7.45;4.13;;;;;;;;;;4972866;28;20463;-83
2022/10/21 06:58:49;;;;;;;7.25;4.65;;;;;;;;;;4972816;28;20031;-86
2022/10/21 07:01:20;;;;;;;7.05;4.55;;;;;;;;;;4972414;28;20041;-84
2022/10/21 07:03:46;;;;;;;6.75;4.22;;;;;;;;;;4956206;28;20394;-85
2022/10/21 07:06:11;;;;;;;10.50;4.88;;;;;;;;;;4957438;28;20035;-85
2022/10/21 07:08:38;;;;;;;8.82;5.10;;;;;;;;;;4972172;28;20466;-86
2022/10/21 07:11:04;;;;;;;14.18;4.50;;;;;;;;;;4971427;28;20050;-84
2022/10/21 07:13:29;;;;;;;11.77;4.57;;;;;;;;;;4972298;28;20474;-82
2022/10/21 07:16:00;;;;;;;16.65;4.72;;;;;;;;;;4957468;28;20039;-84
2022/10/21 07:18:25;;;;;;;13.35;4.70;;;;;;;;;;4972151;28;20034;-84
2022/10/21 07:20:51;;;;;;;15.23;4.38;;;;;;;;;;4972270;28;20043;-83
2022/10/21 07:23:16;;;;;;;11.82;4.75;;;;;;;;;;4955959;28;20035;-83
2022/10/21 07:25:42;;;;;;;11.95;4.45;;;;;;;;;;4956004;28;20035;-83
2022/10/21 07:28:07;;;;;;;9.13;4.32;;;;;;;;;;4957442;28;20419;-83
2022/10/21 07:30:41;;;;;;;15.00;5.28;;;;;;;;;;4957447;28;20098;-85
2022/10/21 07:33:07;;;;;;;15.25;5.07;;;;;;;;;;4972483;28;20031;-85
2022/10/21 07:35:33;;;;;;;12.55;5.30;;;;;;;;;;4956601;28;20038;-84
2022/10/21 07:37:58;;;;;;;8.90;3.67;;;;;;;;;;4957030;28;20462;-85
2022/10/21 07:40:23;;;;;;;10.27;4.15;;;;;;;;;;4957236;28;20118;-84
2022/10/21 07:42:49;;;;;;;8.48;4.15;;;;;;;;;;4955735;28;20032;-84
2022/10/21 07:45:14;;;;;;;12.02;4.03;;;;;;;;;;4956724;28;20458;-85
2022/10/21 07:47:39;;;;;;;5.80;3.95;;;;;;;;;;4971535;28;20067;-84
2022/10/21 07:50:05;;;;;;;13.55;4.32;;;;;;;;;;4957162;28;20031;-84
2022/10/21 07:52:31;;;;;;;14.20;3.85;;;;;;;;;;4972487;28;20027;-85
2022/10/21 07:54:56;;;;;;;12.20;4.07;;;;;;;;;;4956657;28;20494;-86
2022/10/21 07:57:21;;;;;;;8.23;3.75;;;;;;;;;;4955199;28;20059;-84
2022/10/21 07:59:47;;;;;;;10.90;4.00;;;;;;;;;;4971431;28;20039;-85
2022/10/21 08:02:13;;;;;;;7.30;3.63;;;;;;;;;;4956989;28;20090;-86
2022/10/21 08:04:38;;;;;;;8.68;3.83;;;;;;;;;;4955632;29;20058;-86
2022/10/21 08:07:04;;;;;;;6.60;3.65;;;;;;;;;;4955436;29;20114;-86
2022/10/21 08:09:29;;;;;;;10.02;3.95;;;;;;;;;;4955390;28;20027;-86
2022/10/21 08:11:55;;;;;;;11.35;4.15;;;;;;;;;;4971289;28;20051;-86
2022/10/21 08:14:21;;;;;;;8.30;3.90;;;;;;;;;;4956617;28;20027;-85
2022/10/21 08:16:51;;;;;;;11.00;4.10;;;;;;;;;;4956591;28;20126;-84
2022/10/21 08:19:18;;;;;;;9.40;3.70;;;;;;;;;;4956287;28;20033;-85
2022/10/21 08:21:44;;;;;;;11.27;3.72;;;;;;;;;;4970750;28;20035;-85
2022/10/21 08:24:09;;;;;;;8.63;3.53;;;;;;;;;;4954883;29;20383;-85
2022/10/21 08:26:34;;;;;;;11.60;3.67;;;;;;;;;;4956088;28;20422;-85
2022/10/21 08:29:03;;;;;;;13.45;4.63;;;;;;;;;;4956377;28;20030;-85
2022/10/21 08:31:29;;;;;;;9.93;3.60;;;;;;;;;;4955989;28;20497;-85
2022/10/21 08:33:54;;;;;;;9.98;3.80;;;;;;;;;;4971215;28;20023;-84
2022/10/21 08:36:23;;;;;;;7.13;3.35;;;;;;;;;;4954799;29;20537;-83
2022/10/21 08:38:49;;;;;;;7.22;3.50;;;;;;;;;;4954627;28;20035;-86
2022/10/21 08:41:29;;;;;;;8.48;3.70;;;;;;;;;;4970122;28;20039;-84
2022/10/21 08:44:22;;;;;;;5.80;3.50;;;;;;;;;;4955747;28;20504;-86
2022/10/21 08:47:10;;;;;;;8.15;3.70;;;;;;;;;;4956047;28;20106;-86
2022/10/21 08:49:47;;;;;;;6.85;3.47;;;;;;;;;;4954543;28;20031;-85
2022/10/21 08:52:16;;;;;;;9.80;3.70;;;;;;;;;;4970802;28;20031;-85
2022/10/21 08:54:59;;;;;;;10.63;3.65;;;;;;;;;;4954490;28;20093;-85
2022/10/21 08:57:25;;;;;;;13.13;4.85;;;;;;;;;;4970252;28;20058;-86
2022/10/21 08:59:51;;;;;;;6.97;3.90;;;;;;;;;;4954366;28;20114;-84
2022/10/21 09:02:34;;;;;;;7.22;4.13;;;;;;;;;;4954673;28;20070;-87
2022/10/21 09:05:20;;;;;;;12.75;6.30;;;;;;;;;;4954313;28;20078;-84
2022/10/21 09:08:14;;;;;;;26.73;9.85;;;;;;;;;;4970342;28;20034;-84
2022/10/21 09:10:48;;;;;;;21.37;9.73;;;;;;;;;;4938235;28;20030;-84
2022/10/21 09:13:29;;;;;;;34.70;8.05;;;;;;;;;;4954249;28;20629;-91
2022/10/21 09:16:18;;;;;;;36.35;8.55;;;;;;;;;;4955359;28;20034;-86
2022/10/21 09:19:11;;;;;;;17.17;9.93;;;;;;;;;;4970264;28;20028;-86
2022/10/21 09:21:55;;;;;;;18.85;7.75;;;;;;;;;;4970171;28;20031;-85
2022/10/21 09:24:33;;;;;;;20.02;7.13;;;;;;;;;;4955334;28;20067;-84
2022/10/21 09:27:01;;;;;;;17.88;6.70;;;;;;;;;;4970392;28;20051;-83
2022/10/21 09:29:41;;;;;;;19.35;6.68;;;;;;;;;;4970657;28;20031;-84
2022/10/21 09:32:17;;;;;;;13.70;6.35;;;;;;;;;;4970017;28;20023;-84
2022/10/21 09:35:05;;;;;;;12.73;6.45;;;;;;;;;;4973990;28;20062;-83
2022/10/21 09:37:37;;;;;;;22.98;8.68;;;;;;;;;;4959448;28;20066;-82
2022/10/21 09:40:15;;;;;;;20.05;6.25;;;;;;;;;;4974268;28;20050;-84
2022/10/21 09:42:41;;;;;;;9.30;5.15;;;;;;;;;;4959232;28;20023;-82
2022/10/21 09:45:21;;;;;;;11.38;5.70;;;;;;;;;;4959747;28;20033;-83
2022/10/21 09:47:50;;;;;;;12.20;4.93;;;;;;;;;;4958637;28;20081;-83
2022/10/21 09:50:16;;;;;;;9.60;4.80;;;;;;;;;;4974084;28;20019;-82
2022/10/21 09:52:48;;;;;;;17.58;5.20;;;;;;;;;;4960745;28;20038;-82
2022/10/21 09:55:14;;;;;;;10.05;4.68;;;;;;;;;;4959021;29;20090;-81
2022/10/21 09:58:15;;;;;;;22.63;5.10;;;;;;;;;;4961620;29;20051;-82
2022/10/21 10:00:41;;;;;;;10.68;4.72;;;;;;;;;;4983707;28;20069;-82
2022/10/21 10:03:07;;;;;;;11.45;4.57;;;;;;;;;;4979460;28;20034;-82
2022/10/21 10:05:37;;;;;;;13.85;4.85;;;;;;;;;;4963363;28;20504;-82
2022/10/21 10:08:27;;;;;;;15.02;4.80;;;;;;;;;;4979188;28;20531;-82
2022/10/21 10:11:07;;;;;;;7.05;4.30;;;;;;;;;;4995452;28;20026;-82
2022/10/21 10:13:34;;;;;;;8.63;4.47;;;;;;;;;;4995396;28;20111;-82
2022/10/21 10:16:31;;;;;;;9.90;4.05;;;;;;;;;;4979291;28;20433;-84
2022/10/21 10:19:16;;;;;;;12.63;5.30;;;;;;;;;;4995986;28;20089;-83
2022/10/21 10:21:43;;;;;;;8.43;4.03;;;;;;;;;;4995317;28;20105;-83
2022/10/21 10:24:19;;;;;;;14.80;3.92;;;;;;;;;;4979446;28;20113;-82
2022/10/21 10:26:45;;;;;;;9.82;4.00;;;;;;;;;;4979619;28;20028;-81
2022/10/21 10:29:13;;;;;;;12.68;4.55;;;;;;;;;;4978784;28;20138;-81
2022/10/21 10:31:45;;;;;;;12.35;3.47;;;;;;;;;;4994900;28;20401;-81
2022/10/21 10:34:29;;;;;;;7.30;4.15;;;;;;;;;;4970269;28;20061;-82
2022/10/21 10:37:22;;;;;;;10.35;3.95;;;;;;;;;;4972986;28;20023;-83
2022/10/21 10:39:52;;;;;;;9.85;4.07;;;;;;;;;;4957951;28;20127;-83
2022/10/21 10:42:21;;;;;;;10.50;4.10;;;;;;;;;;4973112;28;20452;-83
2022/10/21 10:44:51;;;;;;;9.43;4.50;;;;;;;;;;4972432;28;20019;-83
2022/10/21 10:47:21;;;;;;;7.50;3.60;;;;;;;;;;4972789;28;20027;-83
2022/10/21 10:49:48;;;;;;;8.27;3.60;;;;;;;;;;4973016;28;20091;-83
2022/10/21 10:52:20;;;;;;;6.40;3.20;;;;;;;;;;4972853;28;20058;-82
2022/10/21 10:54:45;;;;;;;9.52;3.63;;;;;;;;;;4956470;28;20098;-82
2022/10/21 10:57:17;;;;;;;5.30;3.13;;;;;;;;;;4972487;28;20502;-83
2022/10/21 11:00:04;;;;;;;7.88;3.22;;;;;;;;;;4958174;28;20075;-83
2022/10/21 11:02:51;;;;;;;5.85;3.15;;;;;;;;;;4956699;28;20027;-84
2022/10/21 11:05:37;;;;;;;7.82;3.67;;;;;;;;;;4972471;28;20019;-84
2022/10/21 11:08:15;;;;;;;5.40;3.20;;;;;;;;;;4957572;28;20030;-84
2022/10/21 11:10:52;;;;;;;7.82;3.38;;;;;;;;;;4972780;28;20031;-84
2022/10/21 11:13:19;;;;;;;7.03;3.60;;;;;;;;;;4957558;28;20491;-84
2022/10/21 11:15:54;;;;;;;6.95;3.72;;;;;;;;;;4956224;29;20031;-84
2022/10/21 11:18:30;;;;;;;9.43;4.70;;;;;;;;;;4957407;28;20031;-84
2022/10/21 11:21:05;;;;;;;7.88;3.38;;;;;;;;;;4957328;28;20126;-84
2022/10/21 11:23:54;;;;;;;6.40;3.50;;;;;;;;;;4972113;28;20027;-82
2022/10/21 11:26:37;;;;;;;10.35;3.65;;;;;;;;;;4974225;28;20039;-82
2022/10/21 11:29:25;;;;;;;6.65;3.78;;;;;;;;;;4957508;28;20110;-83
2022/10/21 11:31:53;;;;;;;6.93;3.92;;;;;;;;;;4971988;28;20085;-83
2022/10/21 11:34:44;;;;;;;5.38;3.63;;;;;;;;;;4955851;28;20371;-82
2022/10/21 11:37:37;;;;;;;3.88;3.35;;;;;;;;;;4955788;28;20049;-81
2022/10/21 11:40:45;;;;;;;5.88;3.60;;;;;;;;;;4957240;28;20027;-82
2022/10/21 11:43:41;;;;;;;10.10;3.80;;;;;;;;;;4961306;28;20039;-83
2022/10/21 11:46:14;;;;;;;11.75;4.30;;;;;;;;;;4972226;28;20027;-83
2022/10/21 11:49:00;;;;;;;12.27;3.60;;;;;;;;;;4957086;28;20069;-84
2022/10/21 11:51:31;;;;;;;11.23;3.92;;;;;;;;;;4972319;28;20039;-84
2022/10/21 11:53:56;;;;;;;7.15;3.38;;;;;;;;;;4957328;28;20023;-82
2022/10/21 11:56:32;;;;;;;13.48;4.13;;;;;;;;;;4956139;28;20426;-83
2022/10/21 11:59:10;;;;;;;6.30;2.88;;;;;;;;;;4957413;28;20027;-82
2022/10/21 12:01:36;;;;;;;14.52;3.97;;;;;;;;;;4957645;28;20027;-83
2022/10/21 12:04:20;;;;;;;13.25;4.30;;;;;;;;;;4958545;28;20027;-84
2022/10/21 12:07:04;;;;;;;7.72;3.40;;;;;;;;;;4958729;28;20031;-84
2022/10/21 12:09:40;;;;;;;10.38;3.50;;;;;;;;;;4957160;28;20031;-83
2022/10/21 12:12:11;;;;;;;7.97;3.42;;;;;;;;;;4971841;28;20549;-84
2022/10/21 12:14:41;;;;;;;12.88;3.28;;;;;;;;;;4973336;28;20031;-84
2022/10/21 12:17:11;;;;;;;9.68;3.60;;;;;;;;;;4972981;28;20023;-85
2022/10/21 12:19:36;;;;;;;4.40;2.63;;;;;;;;;;4972356;28;20037;-84
2022/10/21 12:22:02;;;;;;;8.57;3.00;;;;;;;;;;4958241;28;20054;-85
2022/10/21 12:24:28;;;;;;;6.10;3.05;;;;;;;;;;4958768;28;20059;-84
2022/10/21 12:27:02;;;;;;;9.90;2.88;;;;;;;;;;4958419;28;20027;-82
2022/10/21 12:29:52;;;;;;;8.65;3.10;;;;;;;;;;4957674;28;20042;-83
2022/10/21 12:32:54;;;;;;;6.63;3.13;;;;;;;;;;4972551;28;20084;-83
2022/10/21 12:35:39;;;;;;;7.32;2.92;;;;;;;;;;4958876;28;20126;-83
2022/10/21 12:38:12;;;;;;;6.88;3.08;;;;;;;;;;4957334;28;20055;-82
2022/10/21 12:40:38;;;;;;;8.75;2.67;;;;;;;;;;4957373;28;20067;-84
2022/10/21 12:43:12;;;;;;;7.70;2.70;;;;;;;;;;4972775;28;20447;-83
2022/10/21 12:45:37;;;;;;;;;;;;;;;;;;4957702;28;20030;-82
2022/10/21 12:48:57;;;;;;;5.73;2.67;;;;;;;;;;4958781;28;20378;-84
2022/10/21 12:51:27;;;;;;;5.13;2.45;;;;;;;;;;4994479;28;20299;-85
2022/10/21 12:53:56;;;;;;;7.72;2.60;;;;;;;;;;4978518;28;20026;-83
2022/10/21 12:56:28;;;;;;;5.03;2.38;;;;;;;;;;4977956;28;20177;-85
2022/10/21 12:58:58;;;;;;;7.03;2.63;;;;;;;;;;4978110;28;20033;-84
2022/10/21 13:01:38;;;;;;;5.15;2.90;;;;;;;;;;4978186;28;20109;-85
2022/10/21 13:04:12;;;;;;;4.47;2.65;;;;;;;;;;4994370;28;20041;-84
2022/10/21 13:06:48;;;;;;;5.80;2.60;;;;;;;;;;4977449;28;20026;-84
2022/10/21 13:09:31;;;;;;;10.73;2.83;;;;;;;;;;4994292;28;20062;-84
2022/10/21 13:12:08;;;;;;;4.38;2.20;;;;;;;;;;4994186;28;20481;-84
2022/10/21 13:14:49;;;;;;;5.05;2.72;;;;;;;;;;4994147;28;20559;-83
2022/10/21 13:17:21;;;;;;;4.78;2.38;;;;;;;;;;4994340;28;20138;-84
2022/10/21 13:19:53;;;;;;;3.05;2.17;;;;;;;;;;4992801;28;20027;-84
2022/10/21 13:22:22;;;;;;;7.25;2.33;;;;;;;;;;4931850;29;20043;-84
2022/10/21 13:24:48;;;;;;;8.57;3.05;;;;;;;;;;4956279;28;20094;-84
2022/10/21 13:27:29;;;;;;;9.63;2.45;;;;;;;;;;4955972;28;20023;-84
2022/10/21 13:29:55;;;;;;;4.88;2.20;;;;;;;;;;4971119;28;20055;-84
2022/10/21 13:32:23;;;;;;;4.30;2.30;;;;;;;;;;4971145;28;20035;-83
2022/10/21 13:34:55;;;;;;;4.95;2.30;;;;;;;;;;4955047;29;20429;-84
2022/10/21 13:37:29;;;;;;;5.32;2.47;;;;;;;;;;4957122;28;20027;-83
2022/10/21 13:39:57;;;;;;;6.75;2.72;;;;;;;;;;4972112;28;20020;-85
2022/10/21 13:42:22;;;;;;;6.43;2.30;;;;;;;;;;4955106;28;20034;-84
2022/10/21 13:44:56;;;;;;;6.00;2.38;;;;;;;;;;4955550;28;20470;-81
2022/10/21 13:47:33;;;;;;;5.57;2.40;;;;;;;;;;4971249;28;20047;-83
2022/10/21 13:50:16;;;;;;;6.13;2.50;;;;;;;;;;4955176;28;20019;-83
2022/10/21 13:52:43;;;;;;;5.17;2.57;;;;;;;;;;4970611;28;20093;-82
2022/10/21 13:55:23;;;;;;;6.63;2.47;;;;;;;;;;4954157;29;20035;-82
2022/10/21 13:57:50;;;;;;;6.72;2.55;;;;;;;;;;4954257;28;20079;-81
2022/10/21 14:00:23;;;;;;;5.00;2.17;;;;;;;;;;4954475;29;20085;-82
2022/10/21 14:02:54;;;;;;;8.93;2.38;;;;;;;;;;4970377;28;20050;-82
2022/10/21 14:05:34;;;;;;;7.38;2.33;;;;;;;;;;4970121;28;20031;-82
2022/10/21 14:08:00;;;;;;;6.88;2.30;;;;;;;;;;4954228;28;20552;-83
2022/10/21 14:10:27;;;;;;;7.05;2.10;;;;;;;;;;4970667;28;20114;-83
2022/10/21 14:12:55;;;;;;;4.72;2.40;;;;;;;;;;4970259;28;20030;-82
2022/10/21 14:15:27;;;;;;;3.75;2.03;;;;;;;;;;4970477;28;20118;-82
2022/10/21 14:17:56;;;;;;;10.38;2.28;;;;;;;;;;4971224;28;20023;-82
2022/10/21 14:20:32;;;;;;;4.38;2.10;;;;;;;;;;4977142;28;20094;-83
2022/10/21 14:22:59;;;;;;;5.70;2.08;;;;;;;;;;4964284;28;20383;-83
2022/10/21 14:25:25;;;;;;;6.97;2.00;;;;;;;;;;4977136;28;20055;-83
2022/10/21 14:27:51;;;;;;;3.58;2.25;;;;;;;;;;4959288;29;20031;-83
2022/10/21 14:30:26;;;;;;;3.13;1.95;;;;;;;;;;4977330;28;20030;-83
2022/10/21 14:32:51;;;;;;;5.43;2.45;;;;;;;;;;4975002;28;20035;-81
2022/10/21 14:35:21;;;;;;;3.20;1.98;;;;;;;;;;4957629;28;20098;-81
2022/10/21 14:37:56;;;;;;;6.40;1.80;;;;;;;;;;4973346;28;20055;-81
2022/10/21 14:40:30;;;;;;;6.32;2.05;;;;;;;;;;4973501;28;20023;-81
2022/10/21 14:42:58;;;;;;;6.03;1.70;;;;;;;;;;4958361;28;20027;-81
2022/10/21 14:45:30;;;;;;;5.00;1.73;;;;;;;;;;4957121;28;20031;-81
2022/10/21 14:48:00;;;;;;;3.17;1.90;;;;;;;;;;4956821;29;20489;-80
2022/10/21 14:50:25;;;;;;;3.70;1.90;;;;;;;;;;4958385;28;20024;-82
2022/10/21 14:52:51;;;;;;;4.78;2.05;;;;;;;;;;4956840;28;20050;-81
2022/10/21 14:55:20;;;;;;;4.00;1.90;;;;;;;;;;4957646;28;20113;-82
2022/10/21 14:57:48;;;;;;;5.22;1.90;;;;;;;;;;4972919;28;20418;-83
2022/10/21 15:00:26;;;;;;;3.35;1.60;;;;;;;;;;4956974;28;20031;-80
2022/10/21 15:02:52;;;;;;;3.20;1.60;;;;;;;;;;4957713;28;20027;-81